createdAt,value
2018-12-15T00:00:57.637Z,98693.84
2018-12-15T00:02:00.608Z,98687.41
2018-12-15T00:03:03.526Z,98680.77
2018-12-15T00:04:06.454Z,98686.55
2018-12-15T00:05:10.537Z,98690.56
2018-12-15T00:06:17.257Z,98686.41
2018-12-15T00:07:21.876Z,98688.59
2018-12-15T00:08:24.934Z,98687.80
2018-12-15T00:09:27.832Z,98690.13
2018-12-15T00:10:30.833Z,98685.29
2018-12-15T00:11:34.527Z,98684.78
2018-12-15T00:12:44.322Z,98688.25
2018-12-15T00:13:47.876Z,98690.37
2018-12-15T00:14:52.525Z,98688.50
2018-12-15T00:15:56.530Z,98692.22
2018-12-15T00:17:05.752Z,98688.45
2018-12-15T00:18:07.682Z,98693.84
2018-12-15T00:19:12.764Z,98688.25
2018-12-15T00:20:16.764Z,98689.88
2018-12-15T00:21:19.714Z,98689.59
2018-12-15T00:22:22.497Z,98687.12
2018-12-15T00:23:26.497Z,98690.28
2018-12-15T00:24:29.329Z,98695.42
2018-12-15T00:25:32.594Z,98697.31
2018-12-15T00:26:35.557Z,98694.94
2018-12-15T00:27:39.552Z,98695.77
2018-12-15T00:28:42.374Z,98699.53
2018-12-15T00:29:46.722Z,98703.59
2018-12-15T00:30:49.809Z,98695.08
2018-12-15T00:31:52.718Z,98702.30
2018-12-15T00:32:55.755Z,98697.20
2018-12-15T00:33:59.704Z,98700.28
2018-12-15T00:35:02.504Z,98698.15
2018-12-15T00:36:05.612Z,98700.82
2018-12-15T00:37:08.927Z,98699.48
2018-12-15T00:38:12.321Z,98707.50
2018-12-15T00:39:15.208Z,98705.63
2018-12-15T00:40:18.040Z,98709.88
2018-12-15T00:41:23.484Z,98703.73
2018-12-15T00:42:26.731Z,98707.96
2018-12-15T00:43:30.250Z,98709.59
2018-12-15T00:44:33.318Z,98710.56
2018-12-15T00:45:36.538Z,98706.89
2018-12-15T00:46:39.580Z,98711.84
2018-12-15T00:47:42.532Z,98712.60
2018-12-15T00:48:45.397Z,98715.23
2018-12-15T00:49:49.895Z,98715.27
2018-12-15T00:50:52.683Z,98717.70
2018-12-15T00:51:55.459Z,98713.98
2018-12-15T00:52:58.226Z,98717.24
2018-12-15T00:54:03.993Z,98722.49
2018-12-15T00:55:06.772Z,98719.58
2018-12-15T00:56:10.238Z,98715.86
2018-12-15T00:57:13.461Z,98718.19
2018-12-15T00:58:16.223Z,98720.33
2018-12-15T00:59:18.970Z,98722.25
2018-12-15T01:00:22.769Z,98716.07
2018-12-15T01:01:25.834Z,98723.58
2018-12-15T01:02:29.479Z,98729.22
2018-12-15T01:03:32.554Z,98726.30
2018-12-15T01:04:35.396Z,98727.69
2018-12-15T01:05:38.682Z,98727.34
2018-12-15T01:06:41.808Z,98733.78
2018-12-15T01:07:44.660Z,98731.16
2018-12-15T01:08:48.368Z,98729.36
2018-12-15T01:09:51.333Z,98734.03
2018-12-15T01:10:54.300Z,98731.89
2018-12-15T01:11:57.618Z,98739.91
2018-12-15T01:13:01.015Z,98742.34
2018-12-15T01:14:04.327Z,98733.94
2018-12-15T01:15:09.547Z,98734.27
2018-12-15T01:16:13.642Z,98733.23
2018-12-15T01:17:20.480Z,98736.66
2018-12-15T01:18:21.621Z,98736.07
2018-12-15T01:19:25.578Z,98741.91
2018-12-15T01:20:28.402Z,98737.41
2018-12-15T01:21:31.622Z,98738.23
2018-12-15T01:22:34.764Z,98744.37
2018-12-15T01:23:38.654Z,98741.95
2018-12-15T01:24:42.168Z,98744.88
2018-12-15T01:25:45.351Z,98734.42
2018-12-15T01:26:48.426Z,98745.16
2018-12-15T01:27:51.642Z,98749.43
2018-12-15T01:28:54.619Z,98750.77
2018-12-15T01:29:57.501Z,98746.45
2018-12-15T01:31:00.618Z,98748.34
2018-12-15T01:32:03.736Z,98750.45
2018-12-15T01:33:06.593Z,98754.68
2018-12-15T01:34:09.761Z,98757.89
2018-12-15T01:35:12.592Z,98760.02
2018-12-15T01:36:15.385Z,98758.69
2018-12-15T01:37:18.168Z,98758.13
2018-12-15T01:38:21.081Z,98751.16
2018-12-15T01:39:23.880Z,98756.55
2018-12-15T01:40:27.301Z,98760.80
2018-12-15T01:41:30.182Z,98754.97
2018-12-15T01:42:33.289Z,98750.45
2018-12-15T01:43:36.683Z,98749.67
2018-12-15T01:44:39.621Z,98749.88
2018-12-15T01:45:42.713Z,98756.80
2018-12-15T01:46:45.898Z,98753.08
2018-12-15T01:47:49.244Z,98748.23
2018-12-15T01:48:52.505Z,98753.59
2018-12-15T01:49:55.655Z,98757.09
2018-12-15T01:50:58.891Z,98747.95
2018-12-15T01:52:02.083Z,98751.74
2018-12-15T01:53:05.178Z,98750.36
2018-12-15T01:54:08.355Z,98753.54
2018-12-15T01:55:11.159Z,98758.08
2018-12-15T01:56:14.126Z,98752.79
2018-12-15T01:57:16.915Z,98759.77
2018-12-15T01:58:19.684Z,98760.80
2018-12-15T01:59:23.000Z,98763.72
2018-12-15T02:00:25.808Z,98751.20
2018-12-15T02:01:29.187Z,98752.34
2018-12-15T02:02:32.098Z,98759.37
2018-12-15T02:03:34.994Z,98757.23
2018-12-15T02:04:40.320Z,98758.03
2018-12-15T02:05:43.663Z,98761.95
2018-12-15T02:06:46.665Z,98764.56
2018-12-15T02:07:50.691Z,98761.66
2018-12-15T02:08:53.634Z,98764.62
2018-12-15T02:09:56.518Z,98764.67
2018-12-15T02:11:00.164Z,98767.05
2018-12-15T02:12:03.547Z,98767.58
2018-12-15T02:13:06.650Z,98770.30
2018-12-15T02:14:09.720Z,98761.85
2018-12-15T02:15:12.690Z,98772.44
2018-12-15T02:16:15.621Z,98771.98
2018-12-15T02:17:18.394Z,98770.81
2018-12-15T02:18:21.692Z,98778.88
2018-12-15T02:19:24.794Z,98777.94
2018-12-15T02:20:27.579Z,98781.73
2018-12-15T02:21:30.471Z,98780.56
2018-12-15T02:22:33.451Z,98782.34
2018-12-15T02:23:36.272Z,98784.61
2018-12-15T02:24:41.082Z,98777.04
2018-12-15T02:25:44.028Z,98779.42
2018-12-15T02:26:46.783Z,98784.72
2018-12-15T02:27:49.695Z,98770.55
2018-12-15T02:28:52.549Z,98778.47
2018-12-15T02:29:55.386Z,98787.48
2018-12-15T02:30:58.731Z,98781.55
2018-12-15T02:32:01.735Z,98784.51
2018-12-15T02:33:04.623Z,98783.71
2018-12-15T02:34:07.482Z,98781.09
2018-12-15T02:35:10.272Z,98775.11
2018-12-15T02:36:13.197Z,98776.15
2018-12-15T02:37:16.427Z,98779.70
2018-12-15T02:38:19.413Z,98778.08
2018-12-15T02:39:22.316Z,98778.62
2018-12-15T02:40:25.182Z,98778.97
2018-12-15T02:41:28.031Z,98778.17
2018-12-15T02:42:30.822Z,98782.19
2018-12-15T02:43:33.960Z,98778.42
2018-12-15T02:44:36.809Z,98778.17
2018-12-15T02:45:39.551Z,98782.19
2018-12-15T02:46:42.348Z,98784.56
2018-12-15T02:47:45.123Z,98791.30
2018-12-15T02:48:48.047Z,98787.88
2018-12-15T02:49:51.317Z,98794.31
2018-12-15T02:50:54.093Z,98786.00
2018-12-15T02:51:57.075Z,98785.52
2018-12-15T02:53:00.003Z,98786.00
2018-12-15T02:54:02.733Z,98786.24
2018-12-15T02:55:05.681Z,98784.61
2018-12-15T02:56:09.038Z,98784.61
2018-12-15T02:57:12.922Z,98780.66
2018-12-15T02:58:15.705Z,98784.13
2018-12-15T02:59:18.451Z,98784.91
2018-12-15T03:00:21.262Z,98782.84
2018-12-15T03:01:24.121Z,98779.51
2018-12-15T03:02:27.523Z,98780.60
2018-12-15T03:03:31.440Z,98786.94
2018-12-15T03:04:34.190Z,98786.44
2018-12-15T03:05:37.099Z,98783.77
2018-12-15T03:06:40.345Z,98788.81
2018-12-15T03:07:43.880Z,98783.71
2018-12-15T03:08:47.269Z,98781.84
2018-12-15T03:09:50.096Z,98780.80
2018-12-15T03:10:53.095Z,98791.78
2018-12-15T03:11:56.058Z,98783.52
2018-12-15T03:12:58.975Z,98782.48
2018-12-15T03:14:01.978Z,98784.66
2018-12-15T03:15:05.351Z,98786.99
2018-12-15T03:16:08.294Z,98785.60
2018-12-15T03:17:11.268Z,98787.64
2018-12-15T03:18:14.064Z,98783.36
2018-12-15T03:19:17.062Z,98790.66
2018-12-15T03:20:20.098Z,98783.07
2018-12-15T03:21:23.586Z,98786.54
2018-12-15T03:22:26.459Z,98781.03
2018-12-15T03:23:29.353Z,98785.60
2018-12-15T03:24:32.248Z,98778.73
2018-12-15T03:25:34.987Z,98786.48
2018-12-15T03:26:37.911Z,98783.23
2018-12-15T03:27:41.244Z,98780.26
2018-12-15T03:28:44.118Z,98775.85
2018-12-15T03:29:47.037Z,98783.71
2018-12-15T03:30:49.966Z,98780.70
2018-12-15T03:31:52.879Z,98783.31
2018-12-15T03:32:56.449Z,98781.69
2018-12-15T03:33:59.638Z,98782.73
2018-12-15T03:35:02.770Z,98781.34
2018-12-15T03:36:05.698Z,98774.07
2018-12-15T03:37:08.657Z,98780.80
2018-12-15T03:38:11.560Z,98780.00
2018-12-15T03:39:14.447Z,98781.63
2018-12-15T03:40:17.692Z,98778.23
2018-12-15T03:41:21.533Z,98778.18
2018-12-15T03:42:24.449Z,98782.53
2018-12-15T03:43:27.341Z,98774.70
2018-12-15T03:44:30.212Z,98782.43
2018-12-15T03:45:33.669Z,98779.41
2018-12-15T03:46:36.629Z,98780.94
2018-12-15T03:47:39.456Z,98778.21
2018-12-15T03:48:42.264Z,98777.81
2018-12-15T03:49:45.815Z,98780.19
2018-12-15T03:50:48.756Z,98776.73
2018-12-15T03:51:51.872Z,98775.99
2018-12-15T03:52:54.776Z,98774.66
2018-12-15T03:53:57.654Z,98776.73
2018-12-15T03:55:00.480Z,98778.38
2018-12-15T03:56:03.386Z,98781.58
2018-12-15T03:57:06.189Z,98774.36
2018-12-15T03:58:09.413Z,98767.18
2018-12-15T03:59:12.306Z,98773.86
2018-12-15T04:00:15.283Z,98770.59
2018-12-15T04:01:18.702Z,98780.75
2018-12-15T04:02:21.654Z,98778.61
2018-12-15T04:03:24.509Z,98772.07
2018-12-15T04:04:27.983Z,98773.11
2018-12-15T04:05:31.061Z,98769.05
2018-12-15T04:06:34.010Z,98766.67
2018-12-15T04:07:37.066Z,98763.77
2018-12-15T04:08:40.102Z,98758.37
2018-12-15T04:09:43.271Z,98766.38
2018-12-15T04:10:46.481Z,98761.14
2018-12-15T04:11:49.679Z,98762.93
2018-12-15T04:12:52.425Z,98758.66
2018-12-15T04:13:55.479Z,98755.75
2018-12-15T04:14:58.199Z,98758.13
2018-12-15T04:16:01.213Z,98752.25
2018-12-15T04:17:05.235Z,98754.41
2018-12-15T04:18:08.254Z,98754.17
2018-12-15T04:19:11.050Z,98751.26
2018-12-15T04:20:13.785Z,98753.98
2018-12-15T04:21:16.580Z,98752.64
2018-12-15T04:22:19.500Z,98750.52
2018-12-15T04:23:22.856Z,98753.48
2018-12-15T04:24:25.835Z,98750.02
2018-12-15T04:25:28.593Z,98750.80
2018-12-15T04:26:31.509Z,98754.86
2018-12-15T04:27:34.933Z,98752.75
2018-12-15T04:28:37.731Z,98756.31
2018-12-15T04:29:41.285Z,98749.47
2018-12-15T04:30:44.204Z,98754.55
2018-12-15T04:31:47.152Z,98758.82
2018-12-15T04:32:50.544Z,98749.42
2018-12-15T04:33:53.718Z,98743.57
2018-12-15T04:34:57.101Z,98751.94
2018-12-15T04:36:00.475Z,98749.47
2018-12-15T04:37:03.867Z,98746.59
2018-12-15T04:38:06.983Z,98741.45
2018-12-15T04:39:10.222Z,98748.91
2018-12-15T04:40:13.311Z,98745.47
2018-12-15T04:41:16.085Z,98750.59
2018-12-15T04:42:19.142Z,98753.77
2018-12-15T04:43:21.927Z,98751.94
2018-12-15T04:44:24.826Z,98759.70
2018-12-15T04:45:27.709Z,98752.97
2018-12-15T04:46:30.883Z,98758.08
2018-12-15T04:47:34.045Z,98755.99
2018-12-15T04:48:37.000Z,98755.70
2018-12-15T04:49:39.814Z,98750.36
2018-12-15T04:50:42.553Z,98756.58
2018-12-15T04:51:45.319Z,98755.00
2018-12-15T04:52:48.055Z,98756.88
2018-12-15T04:53:51.153Z,98754.77
2018-12-15T04:54:56.996Z,98755.11
2018-12-15T04:55:59.763Z,98749.72
2018-12-15T04:57:04.027Z,98755.54
2018-12-15T04:58:07.195Z,98753.13
2018-12-15T04:59:10.979Z,98744.72
2018-12-15T05:00:14.096Z,98752.20
2018-12-15T05:01:16.842Z,98751.45
2018-12-15T05:02:19.626Z,98747.69
2018-12-15T05:03:22.979Z,98748.38
2018-12-15T05:04:25.849Z,98746.99
2018-12-15T05:05:29.873Z,98749.72
2018-12-15T05:06:33.502Z,98747.05
2018-12-15T05:07:37.443Z,98748.38
2018-12-15T05:08:40.171Z,98750.01
2018-12-15T05:09:43.184Z,98755.11
2018-12-15T05:10:46.099Z,98755.11
2018-12-15T05:11:49.135Z,98751.94
2018-12-15T05:12:52.434Z,98755.11
2018-12-15T05:13:55.472Z,98750.01
2018-12-15T05:14:58.335Z,98748.97
2018-12-15T05:16:01.631Z,98750.01
2018-12-15T05:17:05.138Z,98745.70
2018-12-15T05:18:08.548Z,98745.70
2018-12-15T05:19:11.714Z,98748.72
2018-12-15T05:20:14.819Z,98749.27
2018-12-15T05:21:18.204Z,98751.34
2018-12-15T05:22:21.665Z,98753.56
2018-12-15T05:23:24.475Z,98763.15
2018-12-15T05:24:27.326Z,98751.58
2018-12-15T05:25:30.886Z,98762.61
2018-12-15T05:26:33.970Z,98754.60
2018-12-15T05:27:37.282Z,98752.70
2018-12-15T05:28:40.197Z,98751.83
2018-12-15T05:29:43.207Z,98753.98
2018-12-15T05:30:47.025Z,98755.88
2018-12-15T05:31:50.741Z,98752.77
2018-12-15T05:32:53.849Z,98756.82
2018-12-15T05:33:57.009Z,98754.44
2018-12-15T05:34:59.907Z,98752.52
2018-12-15T05:36:03.115Z,98746.62
2018-12-15T05:37:06.382Z,98767.44
2018-12-15T05:38:10.848Z,98763.14
2018-12-15T05:39:13.944Z,98765.92
2018-12-15T05:40:17.059Z,98763.97
2018-12-15T05:41:19.858Z,98755.91
2018-12-15T05:42:22.905Z,98755.96
2018-12-15T05:43:25.729Z,98762.34
2018-12-15T05:44:28.771Z,98762.34
2018-12-15T05:45:31.868Z,98762.34
2018-12-15T05:46:34.663Z,98753.00
2018-12-15T05:47:37.794Z,98754.87
2018-12-15T05:48:41.743Z,98753.84
2018-12-15T05:49:44.869Z,98749.90
2018-12-15T05:50:48.085Z,98752.57
2018-12-15T05:51:51.520Z,98751.77
2018-12-15T05:52:54.342Z,98745.73
2018-12-15T05:53:57.206Z,98753.67
2018-12-15T05:54:59.994Z,98758.37
2018-12-15T05:56:02.858Z,98752.77
2018-12-15T05:57:06.214Z,98755.38
2018-12-15T05:58:08.975Z,98764.08
2018-12-15T05:59:11.993Z,98762.64
2018-12-15T06:00:14.988Z,98763.49
2018-12-15T06:01:17.963Z,98764.67
2018-12-15T06:02:21.383Z,98761.47
2018-12-15T06:03:24.270Z,98757.16
2018-12-15T06:04:27.242Z,98763.97
2018-12-15T06:05:31.702Z,98758.87
2018-12-15T06:06:34.609Z,98754.20
2018-12-15T06:07:37.537Z,98757.11
2018-12-15T06:08:40.567Z,98764.08
2018-12-15T06:09:43.776Z,98761.17
2018-12-15T06:10:46.602Z,98767.25
2018-12-15T06:11:49.398Z,98763.97
2018-12-15T06:12:52.502Z,98768.78
2018-12-15T06:13:55.605Z,98768.48
2018-12-15T06:14:58.489Z,98764.27
2018-12-15T06:16:01.810Z,98764.27
2018-12-15T06:17:04.600Z,98764.22
2018-12-15T06:18:07.394Z,98766.29
2018-12-15T06:19:10.203Z,98768.27
2018-12-15T06:20:13.133Z,98768.03
2018-12-15T06:21:16.071Z,98765.60
2018-12-15T06:22:19.397Z,98767.05
2018-12-15T06:23:22.378Z,98771.05
2018-12-15T06:24:25.496Z,98762.80
2018-12-15T06:25:28.346Z,98764.67
2018-12-15T06:26:32.562Z,98762.75
2018-12-15T06:27:35.316Z,98758.39
2018-12-15T06:28:38.456Z,98764.59
2018-12-15T06:29:41.262Z,98763.78
2018-12-15T06:44:54.962Z,98768.33
2018-12-15T06:45:58.213Z,98769.81
2018-12-15T06:47:00.988Z,98764.22
2018-12-15T06:48:04.969Z,98761.30
2018-12-15T06:49:09.043Z,98749.53
2018-12-15T06:50:11.842Z,98764.31
2018-12-15T06:51:14.601Z,98768.80
2018-12-15T06:52:17.606Z,98771.97
2018-12-15T06:53:20.345Z,98760.01
2018-12-15T06:54:23.276Z,98768.61
2018-12-15T06:55:26.361Z,98770.83
2018-12-15T06:56:29.128Z,98768.66
2018-12-15T06:57:33.691Z,98768.72
2018-12-15T06:58:36.678Z,98769.77
2018-12-15T06:59:39.486Z,98769.14
2018-12-15T07:00:43.292Z,98778.01
2018-12-15T07:01:46.796Z,98778.36
2018-12-15T07:02:49.906Z,98766.59
2018-12-15T07:03:53.029Z,98769.81
2018-12-15T07:04:56.007Z,98771.69
2018-12-15T07:05:59.071Z,98773.02
2018-12-15T07:07:02.203Z,98770.59
2018-12-15T07:08:05.489Z,98768.42
2018-12-15T07:09:08.734Z,98770.05
2018-12-15T07:10:11.497Z,98767.14
2018-12-15T07:11:14.717Z,98767.39
2018-12-15T07:12:17.546Z,98763.86
2018-12-15T07:13:23.085Z,98762.64
2018-12-15T07:14:26.553Z,98763.97
2018-12-15T07:15:29.802Z,98764.77
2018-12-15T08:23:14.562Z,98777.84
2018-12-15T08:24:17.632Z,98790.36
2018-12-15T08:25:20.626Z,98783.98
2018-12-15T08:26:23.412Z,98782.34
2018-12-15T08:27:26.578Z,98786.59
2018-12-15T08:28:29.309Z,98789.61
2018-12-15T08:29:32.336Z,98787.00
2018-12-15T08:30:36.233Z,98774.63
2018-12-15T08:31:39.001Z,98764.43
2018-12-15T08:32:43.403Z,98775.61
2018-12-15T08:33:46.182Z,98773.48
2018-12-15T08:34:49.257Z,98771.05
2018-12-15T08:35:53.233Z,98785.26
2018-12-15T08:36:56.503Z,98780.45
2018-12-15T08:38:02.992Z,98787.98
2018-12-15T08:39:05.846Z,98791.14
2018-12-15T08:40:10.652Z,98782.83
2018-12-15T08:41:15.242Z,98778.83
2018-12-15T08:42:18.264Z,98785.50
2018-12-15T08:43:22.297Z,98788.23
2018-12-15T08:44:25.464Z,98792.28
2018-12-15T08:45:28.714Z,98780.56
2018-12-15T08:46:31.666Z,98790.70
2018-12-15T08:47:34.975Z,98789.27
2018-12-15T08:48:39.426Z,98779.92
2018-12-15T08:49:42.362Z,98771.41
2018-12-15T08:50:46.492Z,98783.92
2018-12-15T08:51:49.485Z,98791.30
2018-12-15T08:52:52.635Z,98805.98
2018-12-15T08:53:55.762Z,98789.61
2018-12-15T08:54:59.245Z,98789.97
2018-12-15T08:56:02.344Z,98789.42
2018-12-15T08:57:05.133Z,98795.30
2018-12-15T08:58:08.119Z,98780.97
2018-12-15T08:59:11.326Z,98792.64
2018-12-15T09:00:14.301Z,98788.92
2018-12-15T09:01:17.581Z,98793.73
2018-12-15T09:02:20.413Z,98796.64
2018-12-15T09:03:23.751Z,98796.70
2018-12-15T09:04:28.193Z,98799.07
2018-12-15T09:05:32.481Z,98795.13
2018-12-15T09:06:36.692Z,98796.16
2018-12-15T09:07:40.371Z,98791.06
2018-12-15T09:08:43.156Z,98786.76
2018-12-15T09:09:45.988Z,98794.72
2018-12-15T09:10:49.814Z,98793.91
2018-12-15T09:11:52.954Z,98796.41
2018-12-15T09:12:59.178Z,98783.23
2018-12-15T09:14:03.445Z,98797.33
2018-12-15T09:15:06.986Z,98795.81
2018-12-15T09:16:10.320Z,98798.48
2018-12-15T09:17:13.081Z,98803.61
2018-12-15T09:18:15.901Z,98789.08
2018-12-15T09:19:18.761Z,98798.72
2018-12-15T09:20:22.780Z,98792.10
2018-12-15T09:21:27.639Z,98809.22
2018-12-15T09:22:30.859Z,98806.49
2018-12-15T09:23:35.344Z,98810.50
2018-12-15T09:24:38.541Z,98811.84
2018-12-15T09:25:41.769Z,98802.73
2018-12-15T09:26:45.453Z,98795.60
2018-12-15T09:27:48.690Z,98800.52
2018-12-15T09:28:51.901Z,98804.28
2018-12-15T09:29:55.981Z,98795.47
2018-12-15T09:30:59.084Z,98802.14
2018-12-15T09:32:02.527Z,98804.82
2018-12-15T09:33:06.298Z,98802.89
2018-12-15T09:34:09.648Z,98803.30
2018-12-15T09:35:13.300Z,98810.51
2018-12-15T09:36:16.074Z,98806.20
2018-12-15T09:37:20.640Z,98808.02
2018-12-15T09:38:23.626Z,98798.99
2018-12-15T09:39:27.839Z,98809.12
2018-12-15T09:40:31.981Z,98805.86
2018-12-15T09:41:34.860Z,98807.78
2018-12-15T09:42:38.014Z,98806.16
2018-12-15T09:43:41.276Z,98799.72
2018-12-15T09:44:44.562Z,98798.67
2018-12-15T09:45:47.802Z,98801.16
2018-12-15T09:46:51.069Z,98804.23
2018-12-15T09:47:55.040Z,98804.63
2018-12-15T09:48:58.357Z,98801.16
2018-12-15T09:50:01.898Z,98800.12
2018-12-15T09:51:05.499Z,98799.58
2018-12-15T09:52:10.009Z,98797.77
2018-12-15T09:53:12.866Z,98804.45
2018-12-15T09:54:17.375Z,98802.55
2018-12-15T09:55:20.704Z,98805.52
2018-12-15T09:56:24.517Z,98797.61
2018-12-15T09:57:27.719Z,98803.20
2018-12-15T09:58:30.739Z,98802.02
2018-12-15T09:59:34.716Z,98811.07
2018-12-15T10:00:37.812Z,98807.11
2018-12-15T10:01:40.684Z,98813.88
2018-12-15T10:02:44.380Z,98805.63
2018-12-15T10:03:48.431Z,98808.59
2018-12-15T10:04:51.380Z,98804.58
2018-12-15T10:05:54.822Z,98809.09
2018-12-15T10:06:58.484Z,98805.33
2018-12-15T10:08:01.386Z,98804.58
2018-12-15T10:09:04.801Z,98795.39
2018-12-15T10:10:07.895Z,98800.78
2018-12-15T10:11:10.641Z,98805.86
2018-12-15T10:12:14.355Z,98794.88
2018-12-15T10:13:18.309Z,98799.23
2018-12-15T10:14:21.120Z,98790.20
2018-12-15T10:15:24.283Z,98794.27
2018-12-15T10:16:27.080Z,98791.09
2018-12-15T10:17:30.096Z,98789.80
2018-12-15T10:18:33.129Z,98791.38
2018-12-15T10:19:36.862Z,98789.75
2018-12-15T10:20:39.757Z,98792.66
2018-12-15T10:21:43.700Z,98791.78
2018-12-15T10:22:46.503Z,98784.36
2018-12-15T10:23:49.741Z,98786.84
2018-12-15T10:24:52.897Z,98773.32
2018-12-15T10:25:57.360Z,98771.40
2018-12-15T10:27:00.188Z,98785.05
2018-12-15T10:28:03.559Z,98767.98
2018-12-15T10:29:08.819Z,98776.53
2018-12-15T10:30:18.678Z,98769.13
2018-12-15T10:31:26.466Z,98766.34
2018-12-15T10:32:34.552Z,98769.81
2018-12-15T10:33:37.275Z,98760.66
2018-12-15T10:34:42.760Z,98766.20
2018-12-15T10:35:45.572Z,98763.33
2018-12-15T10:36:48.465Z,98762.15
2018-12-15T10:37:52.635Z,98757.00
2018-12-15T10:38:55.711Z,98751.09
2018-12-15T10:39:58.506Z,98752.75
2018-12-15T10:41:02.710Z,98752.80
2018-12-15T10:42:06.616Z,98754.13
2018-12-15T10:43:09.446Z,98753.92
2018-12-15T10:44:12.297Z,98751.00
2018-12-15T10:45:16.029Z,98752.30
2018-12-15T10:46:19.996Z,98754.19
2018-12-15T10:47:23.394Z,98758.24
2018-12-15T10:48:26.477Z,98752.79
2018-12-15T10:49:30.753Z,98740.47
2018-12-15T10:50:34.223Z,98746.66
2018-12-15T10:51:38.522Z,98745.77
2018-12-15T10:52:42.162Z,98735.71
2018-12-15T10:53:45.445Z,98744.72
2018-12-15T10:54:49.583Z,98739.09
2018-12-15T10:55:52.407Z,98734.88
2018-12-15T10:56:56.136Z,98736.55
2018-12-15T10:57:59.376Z,98726.81
2018-12-15T10:59:02.323Z,98731.52
2018-12-15T11:01:20.361Z,98727.76
2018-12-15T11:02:23.419Z,98725.09
2018-12-15T11:03:26.943Z,98723.59
2018-12-15T11:04:29.845Z,98721.03
2018-12-15T11:05:33.123Z,98714.89
2018-12-15T11:06:38.316Z,98715.98
2018-12-15T11:07:41.673Z,98715.08
2018-12-15T11:08:46.303Z,98709.45
2018-12-15T11:09:49.523Z,98721.77
2018-12-15T11:10:54.080Z,98708.45
2018-12-15T11:12:00.852Z,98714.40
2018-12-15T11:13:06.748Z,98710.34
2018-12-15T11:14:09.650Z,98708.41
2018-12-15T11:15:13.692Z,98710.78
2018-12-15T11:16:16.526Z,98713.75
2018-12-15T11:17:24.958Z,98712.16
2018-12-15T11:18:27.733Z,98713.16
2018-12-15T11:19:37.150Z,98708.06
2018-12-15T11:20:38.336Z,98713.30
2018-12-15T11:21:41.960Z,98709.34
2018-12-15T11:22:45.120Z,98703.42
2018-12-15T11:23:49.249Z,98709.30
2018-12-15T11:24:53.516Z,98707.17
2018-12-15T11:25:56.813Z,98708.89
2018-12-15T11:27:00.569Z,98710.23
2018-12-15T11:28:04.481Z,98708.35
2018-12-15T11:29:10.129Z,98706.82
2018-12-15T11:44:09.138Z,98705.69
2018-12-15T11:45:12.115Z,98700.75
2018-12-15T11:46:15.347Z,98704.39
2018-12-15T11:47:19.021Z,98694.80
2018-12-15T11:48:23.240Z,98704.45
2018-12-15T11:49:29.177Z,98693.47
2018-12-15T11:50:33.719Z,98697.03
2018-12-15T11:51:39.239Z,98697.62
2018-12-15T11:52:42.425Z,98694.61
2018-12-15T11:53:45.738Z,98702.08
2018-12-15T11:54:49.878Z,98704.00
2018-12-15T11:55:53.914Z,98699.20
2018-12-15T11:56:57.194Z,98702.91
2018-12-15T11:58:01.708Z,98697.72
2018-12-15T11:59:05.668Z,98696.38
2018-12-15T12:00:08.817Z,98696.04
2018-12-15T12:01:13.170Z,98703.52
2018-12-15T12:02:16.099Z,98701.72
2018-12-15T12:03:20.354Z,98698.22
2018-12-15T12:04:23.208Z,98705.78
2018-12-15T12:05:26.993Z,98703.32
2018-12-15T12:06:30.398Z,98703.32
2018-12-15T12:07:33.508Z,98705.09
2018-12-15T12:08:36.349Z,98687.63
2018-12-15T12:09:40.595Z,98687.05
2018-12-15T12:10:43.454Z,98683.44
2018-12-15T12:11:47.238Z,98676.51
2018-12-15T12:12:50.529Z,98679.47
2018-12-15T12:14:00.061Z,98668.40
2018-12-15T12:14:59.078Z,98673.73
2018-12-15T12:16:01.899Z,98666.22
2018-12-15T12:17:04.767Z,98660.48
2018-12-15T12:18:08.259Z,98683.48
2018-12-15T12:19:11.614Z,98665.88
2018-12-15T12:20:14.530Z,98655.14
2018-12-15T12:21:17.630Z,98655.88
2018-12-15T12:22:21.509Z,98662.81
2018-12-15T12:23:24.665Z,98663.05
2018-12-15T12:24:27.663Z,98658.70
2018-12-15T12:25:31.104Z,98661.16
2018-12-15T12:26:34.022Z,98649.41
2018-12-15T12:27:37.679Z,98639.22
2018-12-15T12:28:40.693Z,98652.77
2018-12-15T12:29:50.549Z,98653.91
2018-12-15T12:30:55.393Z,98638.17
2018-12-15T12:31:58.885Z,98644.41
2018-12-15T12:33:01.850Z,98642.73
2018-12-15T12:34:05.564Z,98655.58
2018-12-15T12:35:09.468Z,98647.81
2018-12-15T12:36:14.606Z,98636.59
2018-12-15T12:37:17.462Z,98640.69
2018-12-15T12:38:20.695Z,98639.64
2018-12-15T12:39:23.739Z,98625.70
2018-12-15T12:40:26.604Z,98640.05
2018-12-15T12:41:30.240Z,98639.84
2018-12-15T12:42:33.325Z,98629.47
2018-12-15T12:43:36.158Z,98620.45
2018-12-15T12:44:42.649Z,98619.07
2018-12-15T12:45:46.468Z,98613.23
2018-12-15T12:46:49.530Z,98617.69
2018-12-15T12:47:53.371Z,98616.65
2018-12-15T12:48:57.002Z,98625.54
2018-12-15T12:49:59.954Z,98617.52
2018-12-15T12:51:03.964Z,98627.09
2018-12-15T12:52:07.609Z,98611.26
2018-12-15T12:53:11.360Z,98622.79
2018-12-15T12:54:16.093Z,98621.45
2018-12-15T12:55:19.785Z,98616.98
2018-12-15T12:56:28.541Z,98618.08
2018-12-15T12:57:32.594Z,98615.41
2018-12-15T12:58:35.797Z,98617.73
2018-12-15T12:59:39.528Z,98610.31
2018-12-15T13:00:42.777Z,98608.72
2018-12-15T13:01:45.697Z,98611.15
2018-12-15T13:02:48.889Z,98605.85
2018-12-15T13:03:51.736Z,98607.23
2018-12-15T13:04:54.657Z,98615.94
2018-12-15T13:05:57.665Z,98603.38
2018-12-15T13:07:00.491Z,98601.06
2018-12-15T13:08:03.327Z,98604.53
2018-12-15T13:09:08.429Z,98602.95
2018-12-15T13:10:11.293Z,98605.87
2018-12-15T13:11:15.088Z,98617.94
2018-12-15T13:12:19.061Z,98599.53
2018-12-15T13:13:24.653Z,98597.95
2018-12-15T13:14:27.484Z,98600.66
2018-12-15T13:15:30.832Z,98601.05
2018-12-15T13:16:37.518Z,98603.67
2018-12-15T13:17:40.404Z,98598.63
2018-12-15T13:18:43.348Z,98595.12
2018-12-15T13:19:47.006Z,98594.32
2018-12-15T13:20:50.636Z,98598.66
2018-12-15T13:21:54.830Z,98599.13
2018-12-15T13:22:57.629Z,98582.30
2018-12-15T13:24:00.442Z,98592.70
2018-12-15T13:25:03.414Z,98601.63
2018-12-15T13:26:06.241Z,98602.18
2018-12-15T13:27:09.144Z,98605.85
2018-12-15T13:28:13.328Z,98612.27
2018-12-15T13:29:18.474Z,98605.92
2018-12-15T13:30:22.369Z,98601.11
2018-12-15T13:31:25.282Z,98607.05
2018-12-15T13:32:28.862Z,98599.63
2018-12-15T13:33:32.542Z,98603.97
2018-12-15T13:34:35.831Z,98594.81
2018-12-15T13:35:38.633Z,98592.94
2018-12-15T13:36:42.216Z,98595.70
2018-12-15T13:37:46.965Z,98592.53
2018-12-15T13:38:50.019Z,98590.41
2018-12-15T13:39:52.993Z,98583.72
2018-12-15T13:40:58.878Z,98589.65
2018-12-15T13:42:03.504Z,98590.73
2018-12-15T13:43:06.587Z,98587.48
2018-12-15T13:44:09.472Z,98589.83
2018-12-15T13:45:14.488Z,98590.94
2018-12-15T13:46:18.231Z,98591.78
2018-12-15T13:47:23.084Z,98593.88
2018-12-15T13:48:26.784Z,98589.02
2018-12-15T13:49:29.953Z,98590.16
2018-12-15T13:50:32.810Z,98594.95
2018-12-15T13:51:36.103Z,98603.22
2018-12-15T13:52:38.949Z,98603.34
2018-12-15T13:53:43.945Z,98602.05
2018-12-15T13:54:47.257Z,98600.30
2018-12-15T13:55:50.292Z,98602.34
2018-12-15T13:56:53.164Z,98608.30
2018-12-15T13:57:56.034Z,98608.00
2018-12-15T13:58:58.939Z,98614.92
2018-12-15T14:00:02.306Z,98609.63
2018-12-15T14:01:05.241Z,98604.34